Ida — C4CZ2 — position and weather

sailwx.info

Track history (hours):
 
Tides and Currents Weather Stations Pressure Air Temp Water Temp Dewpoint Dewpoint Depression Visibility Wind Speed Wind Dir Waves Ship Positions

Ida

Last reported at 2014-Oct-31 23:33 UTC. Time now 2014-Nov-01 00:32 UTC.
Position N 54°22' E 010°09'.

Length 82 m; draft 3.8 m.

Type: Cargo ship. MMSI: 210319000.

Date/timePositionNaut miles runAvg speedWind from/ knotsBaromVisibWave heightAir tempDewpointWater temp
2014-Oct-31 23:33N 54°22' E 010°09'4 4.1
2014-Oct-31 22:33N 54°25' E 010°13'9 8.6
2014-Oct-31 21:33N 54°31' E 010°23'9 8.8
2014-Oct-31 20:32N 54°35' E 010°37'10 9.1
2014-Oct-31 19:27N 54°36' E 010°54'11 9.4
2014-Oct-31 18:18N 54°36' E 011°13'18 9.5
2014-Oct-31 16:27N 54°29' E 011°41'8 8.7
2014-Oct-31 15:33N 54°27' E 011°54'9 9.1
2014-Oct-31 14:33N 54°28' E 012°09'93 8.4
2014-Oct-31 03:33N 55°19' E 014°24'17 8.8
2014-Oct-31 01:33N 55°31' E 014°47'10 8.9
2014-Oct-31 00:23N 55°36' E 015°03'45 9.0
2014-Oct-30 19:27N 55°58' E 016°12'82 8.3
2014-Oct-30 09:33N 57°11' E 017°21'9 8.7
2014-Oct-30 08:33N 57°19' E 017°29'9 8.8
2014-Oct-30 07:33N 57°26' E 017°38'  
2014-Oct-22 23:32N 57°16' E 017°17'85 7.1
2014-Oct-22 11:32N 55°57' E 016°23'46 7.7
2014-Oct-22 05:31N 55°34' E 015°12'9 9.3
2014-Oct-22 04:33N 55°29' E 014°58'9 9.2
2014-Oct-22 03:33N 55°25' E 014°44'9 9.0
2014-Oct-22 02:33N 55°19' E 014°32'9 9.0
2014-Oct-22 01:33N 55°12' E 014°21'8 8.3
2014-Oct-22 00:33N 55°10' E 014°07'  
Track history (hours):
 
Tides and Currents Weather Stations Pressure Air Temp Water Temp Dewpoint Dewpoint Depression Visibility Wind Speed Wind Dir Waves Ship Positions

Ida

Last reported at 2014-Oct-31 23:33 UTC. Time now 2014-Nov-01 00:32 UTC.
Position N 54°22' E 010°09'.

Length 82 m; draft 3.8 m.

Type: Cargo ship. MMSI: 210319000.

Date/timePositionNaut miles runAvg speedWind from/ knotsBaromVisibWave heightAir tempDewpointWater temp
2014-Oct-31 23:33N 54°22' E 010°09'4 4.1
2014-Oct-31 22:33N 54°25' E 010°13'9 8.6
2014-Oct-31 21:33N 54°31' E 010°23'9 8.8
2014-Oct-31 20:32N 54°35' E 010°37'10 9.1
2014-Oct-31 19:27N 54°36' E 010°54'11 9.4
2014-Oct-31 18:18N 54°36' E 011°13'18 9.5
2014-Oct-31 16:27N 54°29' E 011°41'8 8.7
2014-Oct-31 15:33N 54°27' E 011°54'9 9.1
2014-Oct-31 14:33N 54°28' E 012°09'93 8.4
2014-Oct-31 03:33N 55°19' E 014°24'17 8.8
2014-Oct-31 01:33N 55°31' E 014°47'10 8.9
2014-Oct-31 00:23N 55°36' E 015°03'45 9.0
2014-Oct-30 19:27N 55°58' E 016°12'82 8.3
2014-Oct-30 09:33N 57°11' E 017°21'9 8.7
2014-Oct-30 08:33N 57°19' E 017°29'9 8.8
2014-Oct-30 07:33N 57°26' E 017°38'  
2014-Oct-22 23:32N 57°16' E 017°17'85 7.1
2014-Oct-22 11:32N 55°57' E 016°23'46 7.7
2014-Oct-22 05:31N 55°34' E 015°12'9 9.3
2014-Oct-22 04:33N 55°29' E 014°58'9 9.2
2014-Oct-22 03:33N 55°25' E 014°44'9 9.0
2014-Oct-22 02:33N 55°19' E 014°32'9 9.0
2014-Oct-22 01:33N 55°12' E 014°21'8 8.3
2014-Oct-22 00:33N 55°10' E 014°07'  

Dump ship's entire track history